Richwood, Louisiana
Current Conditions -  °F | °C
As of 12:16 PM on Friday 19 Dec 2014 (Local Time) from KMLU Reporting Station
Heavy Rain Heavy Rain  
Wind Chill: 41°   Ceiling: 900
Heat Index: 46°   Visibility: 2mi
Dew Point: 45°   Wind: 12mph
Humidity: 96%   Direction: 30°NNE
Pressure: 30.2"   Gusts: NA
Location:  32.3976°N, 92.0551°W
Report Text: KMLU 191816Z 03010KT 2SM +RA BR BKN009 BKN049 OVC055 08/07 A3020 RMK AO2 P0005 T00780072
Loading
Personal Weather Stations






























Interactive Weather Map New forecast layout! Learn more

10-Day Weather Forecast

Advertisements
Track Severe Weather on mobile